Terminal Aerodrome Forecast
Issued by NWS La Crosse, WI

Home | Current Version | Previous Version | Text Only | Print | Product List | Glossary On
Versions: 1 2 3 4 5 6 7 8 9 10 11 12 13 14 15 16 17 18
000
FTUS43 KARX 241120
TAFLSE
TAF
KLSE 241120Z 2412/2512 08007KT P6SM OVC035
     FM241300 06004KT P6SM OVC020
     FM241400 05004KT 5SM BR OVC015
     FM242100 03008KT 3SM -SHRA OVC010
     FM250600 05009KT 4SM -SHRA OVC015=

USA.gov is the U.S. government's official web portal to all federal, state and local government web resources and services.